sensor_id;sensor_type;location;lat;lon;timestamp;noise_LAeq;noise_LA_min;noise_LA_max;noise_LA01;noise_LA95
41704;Laerm;861;48.808;9.006;2023-08-12T00:01:15;35.31;34.08;37.05;;
41704;Laerm;861;48.808;9.006;2023-08-12T00:03:43;35.31;34.12;36.87;;
41704;Laerm;861;48.808;9.006;2023-08-12T00:06:09;35.31;33.99;36.65;;
41704;Laerm;861;48.808;9.006;2023-08-12T00:08:36;35.31;34.06;36.42;;
41704;Laerm;861;48.808;9.006;2023-08-12T00:11:02;35.33;33.89;36.82;;
41704;Laerm;861;48.808;9.006;2023-08-12T00:13:29;35.31;33.77;36.71;;
41704;Laerm;861;48.808;9.006;2023-08-12T00:15:56;35.32;34.09;36.89;;
41704;Laerm;861;48.808;9.006;2023-08-12T00:18:23;35.34;34.22;37.40;;
41704;Laerm;861;48.808;9.006;2023-08-12T00:20:50;35.33;34.06;37.82;;
41704;Laerm;861;48.808;9.006;2023-08-12T00:23:17;35.30;34.03;36.77;;
41704;Laerm;861;48.808;9.006;2023-08-12T00:25:44;35.30;34.11;37.93;;
41704;Laerm;861;48.808;9.006;2023-08-12T00:28:11;35.30;33.87;36.75;;
41704;Laerm;861;48.808;9.006;2023-08-12T00:30:39;35.33;34.14;37.33;;
41704;Laerm;861;48.808;9.006;2023-08-12T00:33:05;35.28;34.09;37.99;;
41704;Laerm;861;48.808;9.006;2023-08-12T00:35:32;35.24;34.01;36.62;;
41704;Laerm;861;48.808;9.006;2023-08-12T00:37:58;35.20;33.42;36.60;;
41704;Laerm;861;48.808;9.006;2023-08-12T00:40:27;35.21;33.78;39.46;;
41704;Laerm;861;48.808;9.006;2023-08-12T00:42:53;35.23;33.90;40.38;;
41704;Laerm;861;48.808;9.006;2023-08-12T00:45:20;35.23;33.90;36.67;;
41704;Laerm;861;48.808;9.006;2023-08-12T00:47:47;35.22;34.05;36.72;;
41704;Laerm;861;48.808;9.006;2023-08-12T00:50:15;35.21;33.72;36.39;;
41704;Laerm;861;48.808;9.006;2023-08-12T00:52:43;35.16;33.61;36.39;;
41704;Laerm;861;48.808;9.006;2023-08-12T00:55:11;35.14;34.00;36.29;;
41704;Laerm;861;48.808;9.006;2023-08-12T00:57:38;35.14;33.96;36.32;;
41704;Laerm;861;48.808;9.006;2023-08-12T01:00:06;35.12;33.91;36.26;;
41704;Laerm;861;48.808;9.006;2023-08-12T01:02:34;35.18;33.66;53.40;;
41704;Laerm;861;48.808;9.006;2023-08-12T01:05:02;35.10;33.85;36.60;;
41704;Laerm;861;48.808;9.006;2023-08-12T01:07:28;35.11;33.68;36.76;;
41704;Laerm;861;48.808;9.006;2023-08-12T01:09:55;35.11;33.66;38.63;;
41704;Laerm;861;48.808;9.006;2023-08-12T01:12:45;35.11;33.69;37.89;;
41704;Laerm;861;48.808;9.006;2023-08-12T01:15:21;35.10;33.77;36.30;;
41704;Laerm;861;48.808;9.006;2023-08-12T01:17:53;35.08;33.77;36.17;;
41704;Laerm;861;48.808;9.006;2023-08-12T01:20:25;35.08;33.64;36.32;;
41704;Laerm;861;48.808;9.006;2023-08-12T01:23:15;35.09;33.93;36.35;;
41704;Laerm;861;48.808;9.006;2023-08-12T01:25:43;35.13;33.64;36.53;;
41704;Laerm;861;48.808;9.006;2023-08-12T01:28:09;35.14;33.81;36.41;;
41704;Laerm;861;48.808;9.006;2023-08-12T01:31:18;35.15;33.85;36.37;;
41704;Laerm;861;48.808;9.006;2023-08-12T01:34:02;35.15;33.80;36.50;;
41704;Laerm;861;48.808;9.006;2023-08-12T01:36:39;35.14;33.79;36.33;;
41704;Laerm;861;48.808;9.006;2023-08-12T01:39:11;35.15;33.83;36.54;;
41704;Laerm;861;48.808;9.006;2023-08-12T01:41:39;35.15;33.61;36.45;;
41704;Laerm;861;48.808;9.006;2023-08-12T01:44:06;35.15;33.79;36.25;;
41704;Laerm;861;48.808;9.006;2023-08-12T01:46:33;35.14;33.74;36.44;;
41704;Laerm;861;48.808;9.006;2023-08-12T01:48:59;35.13;33.65;36.48;;
41704;Laerm;861;48.808;9.006;2023-08-12T01:51:26;35.14;33.77;36.26;;
41704;Laerm;861;48.808;9.006;2023-08-12T01:53:52;35.14;33.74;36.15;;
41704;Laerm;861;48.808;9.006;2023-08-12T01:56:19;35.15;33.61;36.41;;
41704;Laerm;861;48.808;9.006;2023-08-12T01:58:46;35.16;33.90;36.36;;
41704;Laerm;861;48.808;9.006;2023-08-12T02:01:12;35.16;33.84;36.44;;
41704;Laerm;861;48.808;9.006;2023-08-12T02:03:39;35.16;33.83;36.42;;
41704;Laerm;861;48.808;9.006;2023-08-12T02:06:05;35.16;33.67;36.52;;
41704;Laerm;861;48.808;9.006;2023-08-12T02:08:32;35.16;33.86;36.44;;
41704;Laerm;861;48.808;9.006;2023-08-12T02:10:58;35.17;33.89;36.43;;
41704;Laerm;861;48.808;9.006;2023-08-12T02:13:25;35.18;33.78;36.59;;
41704;Laerm;861;48.808;9.006;2023-08-12T02:15:51;35.18;33.93;36.32;;
41704;Laerm;861;48.808;9.006;2023-08-12T02:18:18;35.19;33.94;36.41;;
41704;Laerm;861;48.808;9.006;2023-08-12T02:20:47;35.22;34.00;36.66;;
41704;Laerm;861;48.808;9.006;2023-08-12T02:23:14;35.23;34.02;36.76;;
41704;Laerm;861;48.808;9.006;2023-08-12T02:25:40;35.26;34.09;36.35;;
41704;Laerm;861;48.808;9.006;2023-08-12T02:28:07;35.25;33.89;36.40;;
41704;Laerm;861;48.808;9.006;2023-08-12T02:30:33;35.29;34.04;36.53;;
41704;Laerm;861;48.808;9.006;2023-08-12T02:33:00;35.30;33.86;36.44;;
41704;Laerm;861;48.808;9.006;2023-08-12T02:35:27;35.30;33.94;36.43;;
41704;Laerm;861;48.808;9.006;2023-08-12T02:37:54;35.30;34.14;36.48;;
41704;Laerm;861;48.808;9.006;2023-08-12T02:40:20;35.30;34.05;36.61;;
41704;Laerm;861;48.808;9.006;2023-08-12T02:42:47;35.31;33.85;36.48;;
41704;Laerm;861;48.808;9.006;2023-08-12T02:45:13;35.29;33.96;36.59;;
41704;Laerm;861;48.808;9.006;2023-08-12T02:47:40;35.30;33.86;36.47;;
41704;Laerm;861;48.808;9.006;2023-08-12T02:50:08;35.30;33.92;36.53;;
41704;Laerm;861;48.808;9.006;2023-08-12T02:52:36;35.31;33.88;38.48;;
41704;Laerm;861;48.808;9.006;2023-08-12T02:55:03;35.31;33.99;36.53;;
41704;Laerm;861;48.808;9.006;2023-08-12T02:57:29;35.31;34.09;36.71;;
41704;Laerm;861;48.808;9.006;2023-08-12T02:59:56;35.34;34.05;42.20;;
41704;Laerm;861;48.808;9.006;2023-08-12T03:02:22;35.35;33.88;39.76;;
41704;Laerm;861;48.808;9.006;2023-08-12T03:04:49;35.33;33.90;42.77;;
41704;Laerm;861;48.808;9.006;2023-08-12T03:07:16;35.35;33.84;42.79;;
41704;Laerm;861;48.808;9.006;2023-08-12T03:09:42;35.35;34.14;38.37;;
41704;Laerm;861;48.808;9.006;2023-08-12T03:12:09;35.35;34.22;42.08;;
41704;Laerm;861;48.808;9.006;2023-08-12T03:14:35;35.36;33.98;42.80;;
41704;Laerm;861;48.808;9.006;2023-08-12T03:17:02;35.39;33.64;39.89;;
41704;Laerm;861;48.808;9.006;2023-08-12T03:19:29;35.39;34.21;36.54;;
41704;Laerm;861;48.808;9.006;2023-08-12T03:21:56;35.39;34.15;37.65;;
41704;Laerm;861;48.808;9.006;2023-08-12T03:24:22;35.38;34.16;36.64;;
41704;Laerm;861;48.808;9.006;2023-08-12T03:26:49;35.31;34.06;36.59;;
41704;Laerm;861;48.808;9.006;2023-08-12T03:29:15;35.31;33.84;36.70;;
41704;Laerm;861;48.808;9.006;2023-08-12T03:31:42;35.31;33.99;36.38;;
41704;Laerm;861;48.808;9.006;2023-08-12T03:34:08;35.34;34.17;38.06;;
41704;Laerm;861;48.808;9.006;2023-08-12T03:36:35;35.33;34.01;36.57;;
41704;Laerm;861;48.808;9.006;2023-08-12T03:39:01;35.35;34.11;40.31;;
41704;Laerm;861;48.808;9.006;2023-08-12T03:41:28;35.33;34.04;37.14;;
41704;Laerm;861;48.808;9.006;2023-08-12T03:43:55;35.33;34.00;36.56;;
41704;Laerm;861;48.808;9.006;2023-08-12T03:46:22;35.33;34.12;36.48;;
41704;Laerm;861;48.808;9.006;2023-08-12T03:48:49;35.33;33.97;36.71;;
41704;Laerm;861;48.808;9.006;2023-08-12T03:51:15;35.33;33.98;36.83;;
41704;Laerm;861;48.808;9.006;2023-08-12T03:53:42;35.32;33.72;36.59;;
41704;Laerm;861;48.808;9.006;2023-08-12T03:56:08;35.32;34.03;36.66;;
41704;Laerm;861;48.808;9.006;2023-08-12T03:58:35;35.32;33.84;37.22;;
41704;Laerm;861;48.808;9.006;2023-08-12T04:01:02;35.33;33.96;37.15;;
41704;Laerm;861;48.808;9.006;2023-08-12T04:03:28;35.33;33.94;36.61;;
41704;Laerm;861;48.808;9.006;2023-08-12T04:05:55;35.33;33.93;36.68;;
41704;Laerm;861;48.808;9.006;2023-08-12T04:08:24;35.34;33.92;36.72;;
41704;Laerm;861;48.808;9.006;2023-08-12T04:10:52;35.35;33.99;39.07;;
41704;Laerm;861;48.808;9.006;2023-08-12T04:13:19;35.34;34.17;36.85;;
41704;Laerm;861;48.808;9.006;2023-08-12T04:15:50;35.35;33.90;36.53;;
41704;Laerm;861;48.808;9.006;2023-08-12T04:18:19;35.36;33.30;38.32;;
41704;Laerm;861;48.808;9.006;2023-08-12T04:20:51;35.35;34.01;37.94;;
41704;Laerm;861;48.808;9.006;2023-08-12T04:23:19;35.40;33.94;39.67;;
41704;Laerm;861;48.808;9.006;2023-08-12T04:25:51;35.49;33.88;47.59;;
41704;Laerm;861;48.808;9.006;2023-08-12T04:28:18;35.41;34.03;47.12;;
41704;Laerm;861;48.808;9.006;2023-08-12T04:30:48;35.37;34.09;38.03;;
41704;Laerm;861;48.808;9.006;2023-08-12T04:33:17;35.40;34.13;41.68;;
41704;Laerm;861;48.808;9.006;2023-08-12T04:35:44;35.39;34.07;38.21;;
41704;Laerm;861;48.808;9.006;2023-08-12T04:38:10;35.39;33.93;43.69;;
41704;Laerm;861;48.808;9.006;2023-08-12T04:40:40;35.38;33.89;39.04;;
41704;Laerm;861;48.808;9.006;2023-08-12T04:43:11;35.35;34.06;36.73;;
41704;Laerm;861;48.808;9.006;2023-08-12T04:45:39;35.35;33.94;36.48;;
41704;Laerm;861;48.808;9.006;2023-08-12T04:48:07;35.36;33.81;36.71;;
41704;Laerm;861;48.808;9.006;2023-08-12T04:50:34;35.35;33.83;38.01;;
41704;Laerm;861;48.808;9.006;2023-08-12T04:53:02;35.35;33.88;39.95;;
41704;Laerm;861;48.808;9.006;2023-08-12T04:55:28;35.36;34.03;37.85;;
41704;Laerm;861;48.808;9.006;2023-08-12T04:57:55;35.36;33.94;41.26;;
41704;Laerm;861;48.808;9.006;2023-08-12T05:00:23;35.34;34.06;37.44;;
41704;Laerm;861;48.808;9.006;2023-08-12T05:02:50;35.33;33.93;37.69;;
41704;Laerm;861;48.808;9.006;2023-08-12T05:05:16;35.36;34.12;40.99;;
41704;Laerm;861;48.808;9.006;2023-08-12T05:07:43;35.36;34.18;45.64;;
41704;Laerm;861;48.808;9.006;2023-08-12T05:10:11;35.34;33.70;43.05;;
41704;Laerm;861;48.808;9.006;2023-08-12T05:12:38;35.37;34.00;46.43;;
41704;Laerm;861;48.808;9.006;2023-08-12T05:15:05;35.34;34.10;37.70;;
41704;Laerm;861;48.808;9.006;2023-08-12T05:17:32;35.34;34.01;42.62;;
41704;Laerm;861;48.808;9.006;2023-08-12T05:19:58;35.32;33.88;39.48;;
41704;Laerm;861;48.808;9.006;2023-08-12T05:22:25;35.33;33.96;41.13;;
41704;Laerm;861;48.808;9.006;2023-08-12T05:24:51;35.34;33.97;40.30;;
41704;Laerm;861;48.808;9.006;2023-08-12T05:27:18;35.38;34.15;46.90;;
41704;Laerm;861;48.808;9.006;2023-08-12T05:29:44;35.30;33.86;40.89;;
41704;Laerm;861;48.808;9.006;2023-08-12T05:32:11;35.18;33.86;43.91;;
41704;Laerm;861;48.808;9.006;2023-08-12T05:34:37;35.13;33.84;47.37;;
41704;Laerm;861;48.808;9.006;2023-08-12T05:37:04;35.08;33.81;40.56;;
41704;Laerm;861;48.808;9.006;2023-08-12T05:39:31;35.12;33.85;40.34;;
41704;Laerm;861;48.808;9.006;2023-08-12T05:41:57;35.37;33.89;58.61;;
41704;Laerm;861;48.808;9.006;2023-08-12T05:44:24;35.01;33.62;46.21;;
41704;Laerm;861;48.808;9.006;2023-08-12T05:46:50;35.14;33.54;43.89;;
41704;Laerm;861;48.808;9.006;2023-08-12T05:49:17;35.09;33.70;39.38;;
41704;Laerm;861;48.808;9.006;2023-08-12T05:51:43;35.12;33.84;38.20;;
41704;Laerm;861;48.808;9.006;2023-08-12T05:54:10;35.16;33.74;43.33;;
41704;Laerm;861;48.808;9.006;2023-08-12T05:56:36;35.16;33.72;41.13;;
41704;Laerm;861;48.808;9.006;2023-08-12T05:59:03;35.21;33.77;39.04;;
41704;Laerm;861;48.808;9.006;2023-08-12T06:01:30;35.34;33.46;39.76;;
41704;Laerm;861;48.808;9.006;2023-08-12T06:03:56;35.52;33.59;61.10;;
41704;Laerm;861;48.808;9.006;2023-08-12T06:06:23;34.99;33.57;37.91;;
41704;Laerm;861;48.808;9.006;2023-08-12T06:08:49;35.02;33.55;38.74;;
41704;Laerm;861;48.808;9.006;2023-08-12T06:11:16;35.13;33.80;41.22;;
41704;Laerm;861;48.808;9.006;2023-08-12T06:13:42;35.08;33.92;42.10;;
41704;Laerm;861;48.808;9.006;2023-08-12T06:16:09;35.18;33.77;41.75;;
41704;Laerm;861;48.808;9.006;2023-08-12T06:18:36;35.37;33.92;43.53;;
41704;Laerm;861;48.808;9.006;2023-08-12T06:21:02;35.26;33.96;42.62;;
41704;Laerm;861;48.808;9.006;2023-08-12T06:23:29;35.22;33.81;39.72;;
41704;Laerm;861;48.808;9.006;2023-08-12T06:25:56;35.27;33.56;44.24;;
41704;Laerm;861;48.808;9.006;2023-08-12T06:28:23;35.29;33.90;38.27;;
41704;Laerm;861;48.808;9.006;2023-08-12T06:30:50;35.39;34.07;41.06;;
41704;Laerm;861;48.808;9.006;2023-08-12T06:33:17;35.50;33.98;47.51;;
41704;Laerm;861;48.808;9.006;2023-08-12T06:35:44;35.48;33.91;39.63;;
41704;Laerm;861;48.808;9.006;2023-08-12T06:38:10;35.50;34.07;41.12;;
41704;Laerm;861;48.808;9.006;2023-08-12T06:40:39;35.48;34.02;40.03;;
41704;Laerm;861;48.808;9.006;2023-08-12T06:43:05;35.46;34.10;41.57;;
41704;Laerm;861;48.808;9.006;2023-08-12T06:45:34;35.47;34.17;39.43;;
41704;Laerm;861;48.808;9.006;2023-08-12T06:48:01;35.52;34.06;41.35;;
41704;Laerm;861;48.808;9.006;2023-08-12T06:50:28;35.45;34.12;37.72;;
41704;Laerm;861;48.808;9.006;2023-08-12T06:52:55;35.43;34.04;40.32;;
41704;Laerm;861;48.808;9.006;2023-08-12T06:55:21;35.48;34.24;41.92;;
41704;Laerm;861;48.808;9.006;2023-08-12T06:57:48;35.54;34.32;40.78;;
41704;Laerm;861;48.808;9.006;2023-08-12T07:00:15;35.58;34.28;41.39;;
41704;Laerm;861;48.808;9.006;2023-08-12T07:02:41;35.54;34.17;41.68;;
41704;Laerm;861;48.808;9.006;2023-08-12T07:05:09;35.57;34.36;39.06;;
41704;Laerm;861;48.808;9.006;2023-08-12T07:07:36;35.56;34.27;43.04;;
41704;Laerm;861;48.808;9.006;2023-08-12T07:10:03;35.52;34.19;41.34;;
41704;Laerm;861;48.808;9.006;2023-08-12T07:12:31;35.48;34.13;40.03;;
41704;Laerm;861;48.808;9.006;2023-08-12T07:14:57;35.46;34.21;41.81;;
41704;Laerm;861;48.808;9.006;2023-08-12T07:17:24;35.50;34.11;38.04;;
41704;Laerm;861;48.808;9.006;2023-08-12T07:19:50;35.52;34.25;37.72;;
41704;Laerm;861;48.808;9.006;2023-08-12T07:22:17;35.57;34.34;38.65;;
41704;Laerm;861;48.808;9.006;2023-08-12T07:24:46;35.58;33.92;36.74;;
41704;Laerm;861;48.808;9.006;2023-08-12T07:27:12;35.61;34.07;36.83;;
41704;Laerm;861;48.808;9.006;2023-08-12T07:29:39;35.65;34.37;36.80;;
41704;Laerm;861;48.808;9.006;2023-08-12T07:32:06;35.62;34.25;36.91;;
41704;Laerm;861;48.808;9.006;2023-08-12T07:34:32;35.64;34.33;36.98;;
41704;Laerm;861;48.808;9.006;2023-08-12T07:36:59;35.67;34.36;36.88;;
41704;Laerm;861;48.808;9.006;2023-08-12T07:39:26;35.70;34.53;37.04;;
41704;Laerm;861;48.808;9.006;2023-08-12T07:41:53;35.76;34.46;36.93;;
41704;Laerm;861;48.808;9.006;2023-08-12T07:44:19;35.81;34.53;39.25;;
41704;Laerm;861;48.808;9.006;2023-08-12T07:46:46;35.89;34.52;37.05;;
41704;Laerm;861;48.808;9.006;2023-08-12T07:49:13;35.88;34.51;37.19;;
41704;Laerm;861;48.808;9.006;2023-08-12T07:51:39;35.88;34.67;37.15;;
41704;Laerm;861;48.808;9.006;2023-08-12T07:54:06;35.97;34.68;37.21;;
41704;Laerm;861;48.808;9.006;2023-08-12T07:56:33;35.98;34.73;37.14;;
41704;Laerm;861;48.808;9.006;2023-08-12T07:58:59;36.08;34.61;37.33;;
41704;Laerm;861;48.808;9.006;2023-08-12T08:01:26;36.07;34.71;37.28;;
41704;Laerm;861;48.808;9.006;2023-08-12T08:03:52;36.19;35.10;37.48;;
41704;Laerm;861;48.808;9.006;2023-08-12T08:06:19;36.22;34.78;37.57;;
41704;Laerm;861;48.808;9.006;2023-08-12T08:08:45;36.31;35.11;37.36;;
41704;Laerm;861;48.808;9.006;2023-08-12T08:11:12;36.32;34.99;37.46;;
41704;Laerm;861;48.808;9.006;2023-08-12T08:13:38;36.31;34.87;37.61;;
41704;Laerm;861;48.808;9.006;2023-08-12T08:16:05;36.27;34.99;37.55;;
41704;Laerm;861;48.808;9.006;2023-08-12T08:18:32;36.38;35.20;37.68;;
41704;Laerm;861;48.808;9.006;2023-08-12T08:20:58;36.36;35.11;37.56;;
41704;Laerm;861;48.808;9.006;2023-08-12T08:23:25;36.33;35.05;37.62;;
41704;Laerm;861;48.808;9.006;2023-08-12T08:25:52;36.36;35.08;37.66;;
41704;Laerm;861;48.808;9.006;2023-08-12T08:28:18;36.36;34.97;37.68;;
41704;Laerm;861;48.808;9.006;2023-08-12T08:30:45;36.33;35.00;37.65;;
41704;Laerm;861;48.808;9.006;2023-08-12T08:33:11;36.39;35.10;37.63;;
41704;Laerm;861;48.808;9.006;2023-08-12T08:35:38;36.54;35.19;37.95;;
41704;Laerm;861;48.808;9.006;2023-08-12T08:38:04;36.61;35.14;37.99;;
41704;Laerm;861;48.808;9.006;2023-08-12T08:40:32;36.68;35.44;38.04;;
41704;Laerm;861;48.808;9.006;2023-08-12T08:43:07;36.69;35.38;37.84;;
41704;Laerm;861;48.808;9.006;2023-08-12T08:45:34;36.73;35.49;38.16;;
41704;Laerm;861;48.808;9.006;2023-08-12T08:48:05;36.77;35.47;37.89;;
41704;Laerm;861;48.808;9.006;2023-08-12T08:50:33;36.81;35.64;38.05;;
41704;Laerm;861;48.808;9.006;2023-08-12T08:53:04;36.73;35.21;38.15;;
41704;Laerm;861;48.808;9.006;2023-08-12T08:55:33;36.79;35.41;37.90;;
41704;Laerm;861;48.808;9.006;2023-08-12T08:57:59;36.88;35.52;38.05;;
41704;Laerm;861;48.808;9.006;2023-08-12T09:00:28;36.93;35.59;38.24;;
41704;Laerm;861;48.808;9.006;2023-08-12T09:02:58;37.02;35.66;38.20;;
41704;Laerm;861;48.808;9.006;2023-08-12T09:05:27;37.08;35.70;38.46;;
41704;Laerm;861;48.808;9.006;2023-08-12T09:07:57;37.11;35.72;38.26;;
41704;Laerm;861;48.808;9.006;2023-08-12T09:10:29;37.13;35.81;38.61;;
41704;Laerm;861;48.808;9.006;2023-08-12T09:12:56;37.13;35.80;38.30;;
41704;Laerm;861;48.808;9.006;2023-08-12T09:15:23;37.12;35.73;38.37;;
41704;Laerm;861;48.808;9.006;2023-08-12T09:17:50;37.17;35.71;38.48;;
41704;Laerm;861;48.808;9.006;2023-08-12T09:20:16;37.26;36.05;38.82;;
41704;Laerm;861;48.808;9.006;2023-08-12T09:22:44;37.30;36.07;38.53;;
41704;Laerm;861;48.808;9.006;2023-08-12T09:25:11;37.38;36.15;38.70;;
41704;Laerm;861;48.808;9.006;2023-08-12T09:27:37;37.44;36.14;38.67;;
41704;Laerm;861;48.808;9.006;2023-08-12T09:30:06;37.55;36.06;38.95;;
41704;Laerm;861;48.808;9.006;2023-08-12T09:32:34;37.68;36.24;38.95;;
41704;Laerm;861;48.808;9.006;2023-08-12T09:35:01;37.78;36.35;39.06;;
41704;Laerm;861;48.808;9.006;2023-08-12T09:37:29;37.83;36.34;39.13;;
41704;Laerm;861;48.808;9.006;2023-08-12T09:39:57;37.79;36.41;39.11;;
41704;Laerm;861;48.808;9.006;2023-08-12T09:42:24;37.75;36.28;39.11;;
41704;Laerm;861;48.808;9.006;2023-08-12T09:44:51;37.71;36.38;38.88;;
41704;Laerm;861;48.808;9.006;2023-08-12T09:47:18;37.67;36.07;38.88;;
41704;Laerm;861;48.808;9.006;2023-08-12T09:49:45;37.62;36.27;38.88;;
41704;Laerm;861;48.808;9.006;2023-08-12T09:52:12;37.51;36.15;38.87;;
41704;Laerm;861;48.808;9.006;2023-08-12T09:54:40;37.47;36.22;38.68;;
41704;Laerm;861;48.808;9.006;2023-08-12T09:57:14;37.48;36.15;38.82;;
41704;Laerm;861;48.808;9.006;2023-08-12T09:59:45;37.50;36.27;38.71;;
41704;Laerm;861;48.808;9.006;2023-08-12T10:02:16;37.47;36.09;38.68;;
41704;Laerm;861;48.808;9.006;2023-08-12T10:04:53;37.49;36.20;38.79;;
41704;Laerm;861;48.808;9.006;2023-08-12T10:07:24;37.50;36.10;38.77;;
41704;Laerm;861;48.808;9.006;2023-08-12T10:09:52;37.53;36.06;38.78;;
41704;Laerm;861;48.808;9.006;2023-08-12T10:12:21;37.54;36.27;38.88;;
41704;Laerm;861;48.808;9.006;2023-08-12T10:14:48;37.49;36.24;38.73;;
41704;Laerm;861;48.808;9.006;2023-08-12T10:17:17;37.51;36.23;38.85;;
41704;Laerm;861;48.808;9.006;2023-08-12T10:19:46;37.54;35.99;39.01;;
41704;Laerm;861;48.808;9.006;2023-08-12T10:22:14;37.58;36.13;38.77;;
41704;Laerm;861;48.808;9.006;2023-08-12T10:24:45;37.55;36.19;38.87;;
41704;Laerm;861;48.808;9.006;2023-08-12T10:27:15;37.52;36.10;38.68;;
41704;Laerm;861;48.808;9.006;2023-08-12T10:29:43;37.52;36.27;38.79;;
41704;Laerm;861;48.808;9.006;2023-08-12T10:32:10;37.51;36.21;38.72;;
41704;Laerm;861;48.808;9.006;2023-08-12T10:34:38;37.54;35.90;38.80;;
41704;Laerm;861;48.808;9.006;2023-08-12T10:37:05;37.56;36.16;38.76;;
41704;Laerm;861;48.808;9.006;2023-08-12T10:39:34;37.59;36.13;38.69;;
41704;Laerm;861;48.808;9.006;2023-08-12T10:42:01;37.58;36.26;38.79;;
41704;Laerm;861;48.808;9.006;2023-08-12T10:44:50;37.61;36.22;38.84;;
41704;Laerm;861;48.808;9.006;2023-08-12T10:47:18;37.65;36.32;39.04;;
41704;Laerm;861;48.808;9.006;2023-08-12T10:49:49;37.63;36.34;39.06;;
41704;Laerm;861;48.808;9.006;2023-08-12T10:52:32;37.72;36.24;41.96;;
41704;Laerm;861;48.808;9.006;2023-08-12T10:55:23;37.78;36.39;39.40;;
41704;Laerm;861;48.808;9.006;2023-08-12T10:57:58;37.77;36.46;40.30;;
41704;Laerm;861;48.808;9.006;2023-08-12T11:00:27;37.77;36.24;38.93;;
41704;Laerm;861;48.808;9.006;2023-08-12T11:02:58;37.78;36.37;38.91;;
41704;Laerm;861;48.808;9.006;2023-08-12T11:05:37;37.82;35.90;45.88;;
41704;Laerm;861;48.808;9.006;2023-08-12T11:08:06;37.70;36.29;40.20;;
41704;Laerm;861;48.808;9.006;2023-08-12T11:10:35;37.64;36.31;41.51;;
41704;Laerm;861;48.808;9.006;2023-08-12T11:13:04;37.58;36.05;43.45;;
41704;Laerm;861;48.808;9.006;2023-08-12T11:15:45;37.51;35.75;38.80;;
41704;Laerm;861;48.808;9.006;2023-08-12T11:18:20;37.50;36.20;38.83;;
41704;Laerm;861;48.808;9.006;2023-08-12T11:20:51;37.55;35.95;47.99;;
41704;Laerm;861;48.808;9.006;2023-08-12T11:23:18;37.49;36.05;39.45;;
41704;Laerm;861;48.808;9.006;2023-08-12T11:25:48;37.64;36.17;44.76;;
41704;Laerm;861;48.808;9.006;2023-08-12T11:28:19;37.76;36.38;43.97;;
41704;Laerm;861;48.808;9.006;2023-08-12T11:30:46;38.05;36.41;51.36;;
41704;Laerm;861;48.808;9.006;2023-08-12T11:33:16;37.85;36.36;43.94;;
41704;Laerm;861;48.808;9.006;2023-08-12T11:35:45;37.83;36.32;42.21;;
41704;Laerm;861;48.808;9.006;2023-08-12T11:38:12;37.92;36.42;46.42;;
41704;Laerm;861;48.808;9.006;2023-08-12T11:40:39;37.73;36.39;38.96;;
41704;Laerm;861;48.808;9.006;2023-08-12T11:43:07;37.63;35.96;39.90;;
41704;Laerm;861;48.808;9.006;2023-08-12T11:45:34;37.48;36.17;41.61;;
41704;Laerm;861;48.808;9.006;2023-08-12T11:48:00;37.48;36.10;39.07;;
41704;Laerm;861;48.808;9.006;2023-08-12T11:50:28;37.16;34.97;43.10;;
41704;Laerm;861;48.808;9.006;2023-08-12T11:52:57;35.72;34.19;43.30;;
41704;Laerm;861;48.808;9.006;2023-08-12T11:55:25;35.54;34.24;44.82;;
41704;Laerm;861;48.808;9.006;2023-08-12T11:57:52;35.42;34.09;41.98;;
41704;Laerm;861;48.808;9.006;2023-08-12T12:00:19;35.40;33.86;43.77;;
41704;Laerm;861;48.808;9.006;2023-08-12T12:02:56;35.39;34.12;38.29;;
41704;Laerm;861;48.808;9.006;2023-08-12T12:05:30;35.38;34.19;36.60;;
41704;Laerm;861;48.808;9.006;2023-08-12T12:07:58;35.48;34.11;41.03;;
41704;Laerm;861;48.808;9.006;2023-08-12T12:10:33;35.64;34.31;43.83;;
41704;Laerm;861;48.808;9.006;2023-08-12T12:13:03;35.59;34.15;40.87;;
41704;Laerm;861;48.808;9.006;2023-08-12T12:15:31;36.24;34.00;61.78;;
41704;Laerm;861;48.808;9.006;2023-08-12T12:17:59;35.28;33.59;50.76;;
41704;Laerm;861;48.808;9.006;2023-08-12T12:20:27;35.86;33.32;64.62;;
41704;Laerm;861;48.808;9.006;2023-08-12T12:22:55;34.88;32.89;54.60;;
41704;Laerm;861;48.808;9.006;2023-08-12T12:25:22;35.45;33.16;54.79;;
41704;Laerm;861;48.808;9.006;2023-08-12T12:27:49;34.51;32.93;47.65;;
41704;Laerm;861;48.808;9.006;2023-08-12T12:30:17;34.17;32.78;51.15;;
41704;Laerm;861;48.808;9.006;2023-08-12T12:32:44;34.17;32.64;37.65;;
41704;Laerm;861;48.808;9.006;2023-08-12T12:35:11;33.72;32.09;36.67;;
41704;Laerm;861;48.808;9.006;2023-08-12T12:37:38;33.76;32.39;54.44;;
41704;Laerm;861;48.808;9.006;2023-08-12T12:40:06;33.61;32.20;41.31;;
41704;Laerm;861;48.808;9.006;2023-08-12T12:42:33;33.47;31.97;35.92;;
41704;Laerm;861;48.808;9.006;2023-08-12T12:45:00;33.37;32.06;37.49;;
41704;Laerm;861;48.808;9.006;2023-08-12T12:47:26;33.32;32.09;38.65;;
41704;Laerm;861;48.808;9.006;2023-08-12T12:49:53;33.28;31.90;34.68;;
41704;Laerm;861;48.808;9.006;2023-08-12T12:52:19;33.62;31.79;58.94;;
41704;Laerm;861;48.808;9.006;2023-08-12T12:54:46;33.22;31.92;42.67;;
41704;Laerm;861;48.808;9.006;2023-08-12T12:57:12;33.12;31.86;34.21;;
41704;Laerm;861;48.808;9.006;2023-08-12T12:59:39;33.08;31.88;34.30;;
41704;Laerm;861;48.808;9.006;2023-08-12T13:02:06;33.13;31.88;34.50;;
41704;Laerm;861;48.808;9.006;2023-08-12T13:04:32;33.19;31.87;34.54;;
41704;Laerm;861;48.808;9.006;2023-08-12T13:06:59;33.27;31.79;36.55;;
41704;Laerm;861;48.808;9.006;2023-08-12T13:09:25;33.44;31.75;35.37;;
41704;Laerm;861;48.808;9.006;2023-08-12T13:11:52;33.60;32.22;42.06;;
41704;Laerm;861;48.808;9.006;2023-08-12T13:14:19;34.39;32.52;55.89;;
41704;Laerm;861;48.808;9.006;2023-08-12T13:16:47;34.06;32.69;42.60;;
41704;Laerm;861;48.808;9.006;2023-08-12T13:19:13;34.26;32.73;39.65;;
41704;Laerm;861;48.808;9.006;2023-08-12T13:21:40;34.10;32.67;38.02;;
41704;Laerm;861;48.808;9.006;2023-08-12T13:24:07;34.10;32.71;36.71;;
41704;Laerm;861;48.808;9.006;2023-08-12T13:26:34;34.12;32.77;36.85;;
41704;Laerm;861;48.808;9.006;2023-08-12T13:29:00;34.74;32.88;52.48;;
41704;Laerm;861;48.808;9.006;2023-08-12T13:31:27;34.84;33.06;48.07;;
41704;Laerm;861;48.808;9.006;2023-08-12T13:33:53;34.77;33.23;40.10;;
41704;Laerm;861;48.808;9.006;2023-08-12T13:36:20;35.15;33.52;47.64;;
41704;Laerm;861;48.808;9.006;2023-08-12T13:38:46;35.42;34.12;36.59;;
41704;Laerm;861;48.808;9.006;2023-08-12T13:41:13;35.57;34.06;39.30;;
41704;Laerm;861;48.808;9.006;2023-08-12T13:43:39;35.49;33.97;36.82;;
41704;Laerm;861;48.808;9.006;2023-08-12T13:46:06;35.46;34.10;36.76;;
41704;Laerm;861;48.808;9.006;2023-08-12T13:48:32;35.46;34.08;36.71;;
41704;Laerm;861;48.808;9.006;2023-08-12T13:50:59;35.45;33.96;37.08;;
41704;Laerm;861;48.808;9.006;2023-08-12T13:53:26;35.43;34.01;36.62;;
41704;Laerm;861;48.808;9.006;2023-08-12T13:55:52;35.48;33.97;38.17;;
41704;Laerm;861;48.808;9.006;2023-08-12T13:58:19;35.59;34.24;37.33;;
41704;Laerm;861;48.808;9.006;2023-08-12T14:00:46;35.73;34.37;36.85;;
41704;Laerm;861;48.808;9.006;2023-08-12T14:03:13;36.06;34.38;37.51;;
41704;Laerm;861;48.808;9.006;2023-08-12T14:05:40;36.75;35.26;38.01;;
41704;Laerm;861;48.808;9.006;2023-08-12T14:08:06;37.12;35.51;38.38;;
41704;Laerm;861;48.808;9.006;2023-08-12T14:10:33;37.36;35.99;38.54;;
41704;Laerm;861;48.808;9.006;2023-08-12T14:12:59;37.56;36.27;38.63;;